Details From MHTG - Tegucigalpa Toncontin Intl
To MMUN - Cancun Intl
Flight Number -
Tags Generated
Created
Modified
Stats Distance 421 nm / 780 km
Max Altitude 0 ft / 0 m
Waypoints 3
Social Downloads 1
Likes 0
Share VATSIM

Download

Looking for another format? Having issues loading an existing format? Contact us
Advertisement - Login to hide

Notes

Generated

Route

MHTG PAMUL MMUN

ID Type Via Altitude Latitude Longitude Leg Dist Tot Dist Heading (true) Name
O MHTG APT - 0 ft / 0 m 14.05292˚ -87.22000˚ - 0 nm - -
PAMUL FIX - 0 ft / 0 m 20.77444˚ -86.89278˚ 404 nm 404 nm 3° / 3° -
O MMUN APT - 0 ft / 0 m 21.05496˚ -86.88084˚ 16 nm 420 nm 2° / 2° -

Altitude Profile

Advertisement - Login to hide

Weather


0- 5 10 15 20 25 30 35+ Temperature / ° C

Clouds and Precipitation
Forecast for 2017-12-15 06:00 UTC. Updated 2 hours ago

Ground ~20,000 ft ~40,000 ft Winds

MHTG

Details ICAO MHTG (TGU)
Name Tegucigalpa Toncontin Intl
Region Honduras
Timezone America/Tegucigalpa (UTC-6.0)
Stats Elevation 3,294 ft / 1,004 m (AMSL)
Location 14.060883° -87.217197°
Runways 1
Magnetic Variation 0.660° W

METAR

MHTG 150600Z 25004KT 9999 SCT028 16/14 Q1020 A3012 NOSIG

Decode

TAF

Not found

Departure Runways

ID Width Length Bearing (true) Bearing (mag) Surface Threshold Offset Overrun Length
02 148 ft / 45 m 6,140 ft / 1,872 m 18.87° 19.53° Asphalt 670 ft / 204 m 100 ft / 30 m
20 148 ft / 45 m 6,140 ft / 1,872 m 198.87° 199.53° Asphalt 0 ft / 0 m 200 ft / 61 m

MMUN

Details ICAO MMUN (CUN)
Name Cancun International
Region Mexico
Timezone America/Cancun (UTC-5.0)
Stats Elevation 24 ft / 7 m (AMSL)
Location 21.042287° -86.873333°
Runways 2
Magnetic Variation 1.881° W

METAR

MMUN 150545Z 11005KT 7SM SKC 22/18 A3003 RMK SLP172 56006 958 SC

Decode

TAF

TAF MMUN 142322Z 1500/1606 00000KT P6SM SCT070 TX26/1520Z TN14/1512Z FM151000 07005KT P6SM BKN015 BKN300 TEMPO 1511/1515 6SM RA FM151600 06015KT P6SM BKN015 BKN300

Decode

Destination Runways

ID Width Length Bearing (true) Bearing (mag) Surface Threshold Offset Overrun Length
12L 148 ft / 45 m 9,150 ft / 2,789 m 123.62° 125.50° Asphalt 0 ft / 0 m 200 ft / 61 m
12R 190 ft / 58 m 11,459 ft / 3,493 m 123.84° 125.72° Asphalt 0 ft / 0 m 200 ft / 61 m
30L 190 ft / 58 m 11,459 ft / 3,493 m 303.85° 305.73° Asphalt 0 ft / 0 m 200 ft / 61 m
30R 148 ft / 45 m 9,150 ft / 2,789 m 303.63° 305.51° Asphalt 0 ft / 0 m 200 ft / 61 m

Approach Navaids

Runway Type Ident Frequency Range Bearing (true) Bearing (mag) Slope Elevation
12L Localiser INCP 110.70 MHz 18 nm / 33 km 123.63° 125.51° - 20 ft / 6 m (AMSL)
12L Glidescope INCP 110.70 MHz 10 nm / 19 km 123.63° 125.51° 3.00° 20 ft / 6 m (AMSL)
12L DME INCP 110.70 MHz 18 nm / 33 km - - - 20 ft / 6 m (AMSL)
12R Localiser ICUN 111.10 MHz 18 nm / 33 km 123.82° 125.70° - 20 ft / 6 m (AMSL)
12R Glidescope ICUN 111.10 MHz 10 nm / 19 km 123.84° 125.73° 3.00° 20 ft / 6 m (AMSL)
12R DME ICUN 111.10 MHz 18 nm / 33 km - - - 20 ft / 6 m (AMSL)

Popular Alternatives